Aérodrome :
LOGIN :

S'inscrire | Disclaimer

   EN    FR    IT 

 










Légende :    VFR   VFR Marginal   IFR   IFR Intensif   IFR Très Intensif
Visi : 
Plafond : 
>= 8 km
>= 3000ft
5 à 8 km
1000 à 3000 ft
1500m à 5 km
500 à 1000 ft
800 à 1500m
200 à 500 ft
< 800m
< 200 ft
Symboles :   Orages  Brouillard  Fortes neiges  Fortes précipitations  Vent > 20 kt
SIGMETs :   Divers  Orages  Givrage  Turbulence  Onde Orograph.  Cendres Volcan.







- Altitude de l'aérodrome : 56 ft
- Code IATA : BZR
- Voir les cartes d'approche


LFMU - Beziers / Vias

DERNIER METAR :
  • 230230Z AUTO 31005KT CAVOK 21/14 Q1018 NOSIG

METARs EXPIRÉS :
  • 230200Z AUTO 33007KT CAVOK 22/14 Q1018
  • 230130Z AUTO 31006KT CAVOK 22/14 Q1018
  • 230100Z AUTO 33004KT CAVOK 23/15 Q1018
  • 230030Z AUTO 33005KT CAVOK 23/16 Q1017
  • 230000Z AUTO 32006KT CAVOK 24/17 Q1017
  • 222330Z AUTO 29006KT CAVOK 23/17 Q1017

TAF TAF LFMU
Valide du 23 à 03h jusqu'au 24 à 03h UTC


230200Z 2303/2403 31006KT CAVOK
BECMG 2311/2313 15010KT
BECMG 2315/2317 34010KT
TEMPO 2316/2319 SHRA BKN030TCU
ATIS : +33 4 67 90 88 88
Pas de NOTAMs connus pour ce terrain.



MET'MAP, la Météo Aéronautique d'un coup d'oeil ! - Copyright ORBIFLY Décembre 2007 - Disclaimer

ORBIFLY MET'MAP TEAM :

Programmation & Développement : Alexandra Zaïnal
Conception & Développement : Baudouin d'Aumeries
Co-Programmation & Développement : Marc-Olivier Méhu
Soutien technique & logistique : Manuel Goepfert

Contact : metmap@orbifly.com




SOURCES & CREDITS :

   NOAA